Time;durP1;ratioP1;P1;durP2;ratioP2;P2;SDS_P1;SDS_P2;PMS_P1;PMS_P2;Temp;Humidity;BMP_temperature;BMP_pressure;BME280_temperature;BME280_humidity;BME280_pressure;Samples;Min_cycle;Max_cycle;Signal;HPM_P1;HPM_P2
2024/03/14 00:00:24;;;;;;;89.30;50.60;;;;;;;3.46;82.89;101019.79;103338;1312;26613;-62
2024/03/14 00:02:51;;;;;;;89.80;48.90;;;;;;;3.46;81.94;101017.06;103338;1315;24789;-61
2024/03/14 00:05:18;;;;;;;;;;;;;;;3.46;81.57;101021.14;103255;1297;22535;-60
2024/03/14 00:07:44;;;;;;;87.60;49.00;;;;;;;3.42;81.41;101019.70;103266;1303;22835;-62
2024/03/14 00:10:10;;;;;;;92.70;50.60;;;;;;;3.37;81.12;101017.05;103268;1311;23075;-61
2024/03/14 00:12:36;;;;;;;85.40;48.00;;;;;;;3.33;81.12;101018.34;103258;1316;24465;-61
2024/03/14 00:15:01;;;;;;;81.60;47.30;;;;;;;3.28;81.15;101018.08;103302;1295;22564;-60
2024/03/14 00:17:27;;;;;;;88.70;48.70;;;;;;;3.26;81.42;101014.44;103193;1311;22679;-61
2024/03/14 00:19:53;;;;;;;89.80;49.30;;;;;;;3.25;81.33;101005.57;103287;1316;25432;-62
2024/03/14 00:22:19;;;;;;;79.60;45.70;;;;;;;3.23;82.46;101007.75;103203;1304;22572;-60
2024/03/14 00:24:45;;;;;;;89.10;50.20;;;;;;;3.20;82.04;101008.71;103271;1316;22697;-62
2024/03/14 00:27:11;;;;;;;84.60;49.40;;;;;;;3.18;81.54;101005.42;103294;1298;22580;-62
2024/03/14 00:29:36;;;;;;;82.90;51.30;;;;;;;3.15;81.52;101007.24;103293;1295;22607;-61
2024/03/14 00:32:02;;;;;;;87.80;48.80;;;;;;;3.12;81.42;101004.80;103096;1309;23053;-61
2024/03/14 00:34:29;;;;;;;86.40;49.20;;;;;;;3.08;81.16;101002.54;103302;1316;22555;-60
2024/03/14 00:36:56;;;;;;;84.40;48.50;;;;;;;3.00;80.84;101000.82;104482;1300;22682;-61
2024/03/14 00:39:23;;;;;;;94.80;49.60;;;;;;;2.92;81.01;100996.39;103309;1310;22633;-61
2024/03/14 00:41:52;;;;;;;80.80;48.80;;;;;;;2.88;81.24;100997.67;103379;1316;22580;-60
2024/03/14 00:44:17;;;;;;;90.90;50.00;;;;;;;2.87;81.41;100995.61;103265;1316;24282;-61
2024/03/14 00:46:46;;;;;;;86.10;49.50;;;;;;;2.88;81.59;100993.24;103155;1297;27134;-62
2024/03/14 00:49:12;;;;;;;80.30;47.20;;;;;;;2.87;81.52;100992.21;103300;1316;25524;-61
2024/03/14 00:51:37;;;;;;;85.40;46.80;;;;;;;2.84;81.27;100991.64;103215;1310;22590;-61
2024/03/14 00:54:05;;;;;;;81.10;46.20;;;;;;;2.81;81.25;100991.05;103305;1316;22549;-60
2024/03/14 00:56:31;;;;;;;64.30;40.50;;;;;;;2.80;81.37;100985.92;103356;1316;22572;-61
2024/03/14 00:58:57;;;;;;;80.20;43.80;;;;;;;2.81;81.54;100982.71;103779;1314;22572;-62
2024/03/14 01:01:25;;;;;;;65.40;39.40;;;;;;;2.81;81.50;100979.81;103272;1310;25349;-61
2024/03/14 01:03:56;;;;;;;75.90;44.50;;;;;;;2.80;81.51;100981.68;103376;1310;23350;-61
2024/03/14 01:06:22;;;;;;;72.80;44.30;;;;;;;2.79;81.48;100980.29;103300;1307;22577;-60
2024/03/14 01:08:49;;;;;;;80.40;45.30;;;;;;;2.78;81.41;100979.91;103184;1310;25377;-61
2024/03/14 01:11:20;;;;;;;78.30;44.20;;;;;;;2.75;81.39;100977.64;103305;1316;22579;-61
2024/03/14 01:13:46;;;;;;;72.20;43.20;;;;;;;2.72;82.19;100973.48;103287;1308;25606;-61
2024/03/14 01:16:11;;;;;;;79.00;44.90;;;;;;;2.69;81.93;100972.75;103173;1294;22566;-62
2024/03/14 01:18:39;;;;;;;95.60;46.60;;;;;;;2.63;81.39;100968.53;103278;1316;22850;-60
2024/03/14 01:21:08;;;;;;;69.60;42.90;;;;;;;2.56;81.39;100970.80;103396;1313;22578;-61
2024/03/14 01:23:34;;;;;;;84.70;42.50;;;;;;;2.52;81.40;100967.63;103386;1312;24779;-62
2024/03/14 01:26:03;;;;;;;64.10;37.90;;;;;;;2.47;81.41;100966.16;103324;1296;24358;-60
2024/03/14 01:28:32;;;;;;;57.60;37.00;;;;;;;2.40;81.38;100962.77;103175;1315;22610;-61
2024/03/14 01:31:00;;;;;;;63.80;38.60;;;;;;;2.33;81.32;100960.58;103215;1316;26492;-60
2024/03/14 01:33:26;;;;;;;71.20;41.80;;;;;;;2.32;82.85;100959.70;103323;1313;24404;-60
2024/03/14 01:35:54;;;;;;;75.70;42.90;;;;;;;2.31;81.93;100959.85;103247;1301;22689;-62
2024/03/14 01:38:21;;;;;;;77.30;43.40;;;;;;;2.26;81.73;100959.73;105536;1297;22687;-61
2024/03/14 01:40:47;;;;;;;;;;;;;;;2.22;81.66;100962.88;103324;1316;25421;-62
2024/03/14 01:43:13;;;;;;;;;;;;;;;2.17;81.84;100955.61;103250;1314;22557;-61
2024/03/14 01:45:39;;;;;;;58.00;35.00;;;;;;;2.12;81.66;100957.86;103299;1311;23079;-61
2024/03/14 01:48:05;;;;;;;68.30;39.00;;;;;;;1.99;81.17;100957.75;104915;1297;22695;-60
2024/03/14 01:50:31;;;;;;;80.40;37.50;;;;;;;1.86;81.26;100960.33;103265;1300;23197;-59
2024/03/14 01:52:59;;;;;;;223.60;29.90;;;;;;;1.80;81.39;100959.31;103322;1314;23123;-60
2024/03/14 01:55:25;;;;;;;410.80;37.50;;;;;;;1.74;81.77;100958.30;104099;1310;22589;-58
2024/03/14 01:57:51;;;;;;;367.00;40.40;;;;;;;1.65;81.74;100954.52;103308;1297;22542;-60
2024/03/14 02:00:18;;;;;;;172.40;41.50;;;;;;;1.58;81.48;100953.50;103326;1316;25273;-59
2024/03/14 02:02:45;;;;;;;144.90;31.30;;;;;;;1.49;81.46;100951.93;103176;1316;22646;-61
2024/03/14 02:05:33;;;;;;;41.50;25.60;;;;;;;1.43;81.62;100951.09;99765;1316;5003753;-61
2024/03/14 02:07:58;;;;;;;61.60;35.60;;;;;;;1.39;81.64;100949.79;103276;1297;22861;-61
2024/03/14 02:10:25;;;;;;;72.50;39.10;;;;;;;1.37;81.79;100947.02;103346;1311;22607;-61
2024/03/14 02:12:54;;;;;;;74.90;39.40;;;;;;;1.35;81.84;100948.50;102995;1316;22845;-64
2024/03/14 02:15:20;;;;;;;77.00;43.60;;;;;;;1.34;83.27;100950.16;103991;1311;22671;-62
2024/03/14 02:17:45;;;;;;;80.90;44.10;;;;;;;1.40;83.36;100951.19;103248;1316;25397;-61
2024/03/14 02:20:14;;;;;;;96.80;49.30;;;;;;;1.44;82.62;100948.56;103056;1317;24267;-61
2024/03/14 02:22:40;;;;;;;85.40;46.40;;;;;;;1.42;82.33;100947.15;103494;1316;22703;-61
2024/03/14 02:25:06;;;;;;;66.50;38.20;;;;;;;1.32;81.59;100949.08;103188;1316;25451;-61
2024/03/14 02:27:35;;;;;;;279.30;49.50;;;;;;;1.17;81.54;100945.98;103293;1295;22555;-62
2024/03/14 02:30:04;;;;;;;89.00;47.30;;;;;;;1.15;82.19;100941.49;103327;1310;22741;-61
2024/03/14 02:32:30;;;;;;;393.00;46.10;;;;;;;1.18;82.44;100944.47;103367;1316;22788;-60
2024/03/14 02:34:55;;;;;;;121.40;43.30;;;;;;;1.19;82.23;100943.31;103317;1313;22692;-61
2024/03/14 02:37:21;;;;;;;524.40;43.60;;;;;;;1.20;82.31;100941.46;103270;1298;25203;-62
2024/03/14 02:39:47;;;;;;;399.80;40.60;;;;;;;1.20;82.31;100942.65;103326;1297;24396;-62
2024/03/14 02:42:14;;;;;;;97.50;38.80;;;;;;;1.19;82.03;100943.99;103382;1310;22690;-60
2024/03/14 02:44:39;;;;;;;321.80;43.70;;;;;;;1.13;82.10;100948.22;103319;1313;25151;-61
2024/03/14 02:47:07;;;;;;;72.20;34.80;;;;;;;1.06;81.94;100947.19;103161;1316;22561;-61
2024/03/14 02:49:33;;;;;;;187.30;38.80;;;;;;;1.00;82.05;100949.25;103281;1311;22613;-62
2024/03/14 02:52:00;;;;;;;132.50;42.00;;;;;;;0.98;82.16;100947.52;103309;1316;23845;-61
2024/03/14 02:54:30;;;;;;;104.90;38.80;;;;;;;0.95;82.14;100948.77;103774;1310;306609;-59
2024/03/14 02:56:56;;;;;;;117.70;35.60;;;;;;;0.91;82.02;100944.76;103706;1311;22848;-62
2024/03/14 02:59:22;;;;;;;142.10;37.70;;;;;;;0.86;81.93;100946.14;103347;1297;23812;-62
2024/03/14 03:01:49;;;;;;;124.50;30.90;;;;;;;0.80;81.89;100945.29;103323;1316;26639;-62
2024/03/14 03:04:15;;;;;;;346.50;32.30;;;;;;;0.75;82.11;100946.33;103219;1316;22555;-62
2024/03/14 03:06:48;;;;;;;126.70;32.90;;;;;;;0.73;82.34;100944.05;103254;1316;23981;-61
2024/03/14 03:09:17;;;;;;;176.00;28.20;;;;;;;0.72;82.35;100940.80;103094;1298;22559;-61
2024/03/14 03:11:42;;;;;;;50.80;31.10;;;;;;;0.73;82.28;100941.67;103241;1316;23447;-61
2024/03/14 03:14:08;;;;;;;52.40;31.60;;;;;;;0.73;82.45;100940.01;103306;1316;22647;-62
2024/03/14 03:16:34;;;;;;;59.90;35.50;;;;;;;0.72;82.28;100939.13;103289;1313;22611;-62
2024/03/14 03:19:00;;;;;;;59.20;34.70;;;;;;;0.71;82.33;100935.16;103288;1297;22559;-60
2024/03/14 03:21:27;;;;;;;47.50;30.60;;;;;;;0.69;82.23;100935.81;103415;1316;25361;-61
2024/03/14 03:23:53;;;;;;;;;;;;;;;0.62;82.08;100932.20;103262;1316;22598;-62
2024/03/14 03:26:19;;;;;;;61.60;32.30;;;;;;;0.56;82.34;100930.50;103341;1317;27673;-61
2024/03/14 03:28:49;;;;;;;87.30;41.60;;;;;;;0.53;82.33;100928.71;103253;1294;22583;-59
2024/03/14 03:31:14;;;;;;;79.80;43.80;;;;;;;0.54;82.36;100930.27;103521;1303;22638;-62
2024/03/14 03:33:40;;;;;;;83.50;44.60;;;;;;;0.55;82.48;100925.05;103161;1312;22556;-62
2024/03/14 03:36:06;;;;;;;92.80;48.70;;;;;;;0.59;82.50;100924.48;103301;1316;22619;-62
2024/03/14 03:38:36;;;;;;;107.00;50.10;;;;;;;0.65;82.74;100926.20;103579;1316;22581;-62
2024/03/14 03:41:02;;;;;;;93.90;47.50;;;;;;;0.69;82.76;100922.73;103260;1308;24427;-62
2024/03/14 03:43:28;;;;;;;101.00;49.90;;;;;;;0.71;82.87;100921.10;103282;1313;25462;-63
2024/03/14 03:45:57;;;;;;;88.30;46.20;;;;;;;0.71;82.78;100920.42;103372;1316;22933;-60
2024/03/14 03:48:23;;;;;;;100.00;49.30;;;;;;;0.69;82.71;100919.69;103473;1316;23354;-61
2024/03/14 03:50:49;;;;;;;105.20;50.00;;;;;;;0.69;82.66;100918.15;103348;1297;22562;-62
2024/03/14 03:53:14;;;;;;;113.40;53.90;;;;;;;0.76;82.82;100916.48;103257;1313;22724;-59
2024/03/14 03:55:42;;;;;;;111.00;55.20;;;;;;;0.87;82.85;100917.83;103127;1314;22562;-61
2024/03/14 03:58:09;;;;;;;127.80;54.60;;;;;;;0.98;85.09;100917.30;103817;1316;22558;-62
2024/03/14 04:00:44;;;;;;;117.10;53.00;;;;;;;1.11;85.07;100917.95;104293;1297;22705;-62
2024/03/14 04:03:14;;;;;;;119.70;54.80;;;;;;;1.16;84.74;100918.77;103278;1310;22776;-62
2024/03/14 04:05:45;;;;;;;118.80;55.30;;;;;;;1.18;83.86;100922.75;103309;1316;22747;-62
2024/03/14 04:08:14;;;;;;;108.00;51.10;;;;;;;1.17;83.65;100923.73;103415;1315;22559;-59
2024/03/14 04:10:41;;;;;;;92.30;49.20;;;;;;;1.12;83.23;100922.40;103184;1313;22627;-62
2024/03/14 04:13:11;;;;;;;100.50;51.00;;;;;;;1.01;82.91;100920.08;103675;1316;22767;-62
2024/03/14 04:15:37;;;;;;;97.30;49.10;;;;;;;0.96;83.13;100922.00;103280;1310;22598;-60
2024/03/14 04:18:06;;;;;;;112.50;53.70;;;;;;;0.92;83.04;100925.27;103328;1316;25391;-61
2024/03/14 04:20:33;;;;;;;126.70;61.00;;;;;;;0.86;82.72;100927.31;103074;1304;24715;-60
2024/03/14 04:22:59;;;;;;;97.20;53.30;;;;;;;0.79;82.52;100931.33;103584;1310;22692;-62
2024/03/14 04:25:25;;;;;;;96.20;50.60;;;;;;;0.72;82.70;100933.18;103290;1316;26567;-63
2024/03/14 04:27:52;;;;;;;141.80;50.30;;;;;;;0.65;82.55;100933.83;103319;1316;22867;-62
2024/03/14 04:30:21;;;;;;;138.20;35.10;;;;;;;0.52;82.38;100936.02;103414;1308;25218;-61
2024/03/14 04:32:50;;;;;;;90.20;33.50;;;;;;;0.36;82.34;100932.48;103340;1316;22588;-60
2024/03/14 04:35:17;;;;;;;341.10;34.60;;;;;;;0.25;82.53;100929.95;103154;1309;22636;-60
2024/03/14 04:37:51;;;;;;;61.00;30.40;;;;;;;0.23;82.80;100932.23;103267;1313;22567;-61
2024/03/14 04:40:19;;;;;;;59.10;31.30;;;;;;;0.24;83.21;100931.28;105509;1296;22577;-61
2024/03/14 04:42:46;;;;;;;66.00;37.40;;;;;;;0.24;82.85;100929.40;103596;1314;23324;-61
2024/03/14 04:45:13;;;;;;;;;;;;;;;0.26;83.07;100930.48;103371;1307;23789;-61
2024/03/14 04:47:41;;;;;;;77.80;39.90;;;;;;;0.36;87.12;100932.66;103307;1301;22721;-61
2024/03/14 04:50:10;;;;;;;85.30;41.60;;;;;;;0.43;84.92;100937.44;103244;1295;25326;-61
2024/03/14 04:52:41;;;;;;;93.10;47.20;;;;;;;0.39;83.82;100932.05;103511;1311;22560;-61
2024/03/14 04:55:10;;;;;;;91.20;44.10;;;;;;;0.26;84.40;100938.78;103257;1314;24164;-62
2024/03/14 04:57:40;;;;;;;90.60;46.60;;;;;;;0.20;86.57;100942.48;103128;1316;22566;-60
2024/03/14 05:02:46;;;;;;;97.60;49.40;;;;;;;0.15;83.88;100941.67;104193;1304;24418;-62
2024/03/14 05:05:13;;;;;;;98.80;48.40;;;;;;;0.10;84.50;100941.33;106954;1308;22221;-61
2024/03/14 05:07:38;;;;;;;194.70;41.90;;;;;;;0.06;84.40;100942.70;106999;1315;22706;-61
2024/03/14 05:10:05;;;;;;;149.90;44.20;;;;;;;0.01;83.76;100944.27;103365;1316;24271;-61
2024/03/14 05:12:31;;;;;;;298.90;52.10;;;;;;;-0.01;84.39;100944.58;104067;1294;22709;-63
2024/03/14 05:14:57;;;;;;;372.70;44.00;;;;;;;-0.03;83.58;100941.77;103343;1312;26024;-61
2024/03/14 05:17:23;;;;;;;238.00;36.00;;;;;;;-0.10;83.47;100940.89;103357;1313;22563;-60
2024/03/14 05:19:50;;;;;;;64.80;34.90;;;;;;;-0.08;86.38;100941.83;103006;1316;23501;-62
2024/03/14 05:22:17;;;;;;;99.50;39.00;;;;;;;-0.05;84.69;100940.20;103283;1305;22562;-61
2024/03/14 05:24:42;;;;;;;80.80;41.70;;;;;;;-0.09;87.55;100940.93;103186;1316;25247;-61
2024/03/14 05:27:08;;;;;;;75.50;40.90;;;;;;;-0.12;87.25;100945.23;103186;1310;22514;-61
2024/03/14 05:29:35;;;;;;;81.90;42.40;;;;;;;-0.09;85.62;100944.64;103403;1316;22536;-59
2024/03/14 05:32:00;;;;;;;79.90;43.10;;;;;;;-0.06;85.02;100941.21;103185;1301;22914;-61
2024/03/14 05:34:26;;;;;;;103.00;48.70;;;;;;;-0.05;84.50;100939.36;103194;1310;22581;-60
2024/03/14 05:36:52;;;;;;;201.60;44.00;;;;;;;-0.06;84.12;100941.19;103287;1310;22692;-61
2024/03/14 05:39:21;;;;;;;314.20;43.90;;;;;;;-0.05;84.40;100935.48;103193;1314;22724;-61
2024/03/14 05:41:48;;;;;;;389.00;45.50;;;;;;;0.05;84.46;100941.16;103334;1295;22579;-60
2024/03/14 05:44:14;;;;;;;198.80;42.20;;;;;;;0.11;84.65;100938.13;106806;1314;22438;-61
2024/03/14 05:46:40;;;;;;;133.20;44.50;;;;;;;0.18;84.27;100937.35;106859;1309;22295;-60
2024/03/14 05:49:06;;;;;;;105.60;48.70;;;;;;;0.29;84.61;100936.52;106822;1316;23008;-60
2024/03/14 05:51:32;;;;;;;113.20;51.80;;;;;;;0.47;85.11;100933.48;106938;1294;22247;-61
2024/03/14 05:53:58;;;;;;;114.20;55.60;;;;;;;0.76;85.73;100931.94;106966;1316;22961;-60
2024/03/14 05:56:23;;;;;;;120.90;55.90;;;;;;;1.01;86.22;100933.65;106953;1315;23266;-60
2024/03/14 05:58:49;;;;;;;131.10;55.90;;;;;;;1.24;86.20;100936.14;106990;1300;22329;-61
2024/03/14 06:01:16;;;;;;;126.00;57.40;;;;;;;1.44;86.72;100934.64;106865;1310;23453;-61
2024/03/14 06:03:43;;;;;;;137.30;60.20;;;;;;;1.65;87.42;100936.67;107005;1297;22936;-64
2024/03/14 06:06:10;;;;;;;126.90;56.80;;;;;;;1.86;87.10;100939.41;106873;1310;22695;-61
2024/03/14 06:08:35;;;;;;;127.40;59.10;;;;;;;2.03;86.56;100941.34;106938;1313;22334;-62
2024/03/14 06:11:02;;;;;;;115.20;56.10;;;;;;;2.19;86.41;100937.45;106703;1311;22443;-60
2024/03/14 06:13:28;;;;;;;112.10;55.00;;;;;;;2.35;86.19;100939.51;106977;1297;22613;-62
2024/03/14 06:15:53;;;;;;;118.80;57.80;;;;;;;2.51;86.04;100936.30;106817;1316;22216;-62
2024/03/14 06:18:22;;;;;;;106.10;56.00;;;;;;;2.63;85.81;100935.69;107017;1315;22291;-62
2024/03/14 06:20:48;;;;;;;98.20;51.50;;;;;;;2.77;85.98;100934.11;107008;1316;22238;-61
2024/03/14 06:23:14;;;;;;;95.50;50.30;;;;;;;2.90;86.06;100934.05;105941;1292;24631;-62
2024/03/14 06:25:41;;;;;;;97.50;52.10;;;;;;;3.05;85.94;100930.42;104298;1310;26806;-59
2024/03/14 06:28:07;;;;;;;94.80;52.20;;;;;;;3.22;86.70;100930.05;106926;1315;22353;-65
2024/03/14 06:30:33;;;;;;;102.10;52.40;;;;;;;3.37;87.00;100934.41;106885;1315;22226;-63
2024/03/14 06:32:58;;;;;;;103.70;54.50;;;;;;;3.55;86.91;100940.02;106798;1300;23003;-64
2024/03/14 06:35:24;;;;;;;97.20;53.20;;;;;;;3.78;87.11;100943.12;107019;1316;22961;-64
2024/03/14 06:37:53;;;;;;;98.80;52.70;;;;;;;3.99;86.60;100941.77;106989;1311;22258;-62
2024/03/14 06:40:21;;;;;;;101.00;54.40;;;;;;;4.21;86.68;100942.25;106855;1316;23094;-63
2024/03/14 06:42:48;;;;;;;98.30;52.90;;;;;;;4.43;88.10;100944.61;106701;1300;22281;-63
2024/03/14 06:45:16;;;;;;;90.40;54.20;;;;;;;4.63;88.73;100946.61;106865;1312;22349;-63
2024/03/14 06:47:45;;;;;;;94.90;54.00;;;;;;;4.85;88.03;100949.95;106977;1316;22419;-63
2024/03/14 06:50:12;;;;;;;89.00;51.80;;;;;;;5.10;87.74;100951.11;106954;1311;22216;-64
2024/03/14 06:52:38;;;;;;;90.00;52.50;;;;;;;5.32;87.46;100952.87;106950;1292;22235;-62
2024/03/14 06:55:05;;;;;;;94.80;55.20;;;;;;;5.55;87.48;100949.18;106986;1310;22331;-61
2024/03/14 06:57:30;;;;;;;92.50;56.70;;;;;;;5.85;87.58;100945.85;106863;1313;23147;-63
2024/03/14 06:59:56;;;;;;;86.10;54.70;;;;;;;6.15;87.64;100947.98;106976;1316;22539;-62
2024/03/14 07:02:21;;;;;;;84.40;51.30;;;;;;;6.41;87.60;100945.24;106716;1313;22324;-63
2024/03/14 07:04:51;;;;;;;83.80;53.50;;;;;;;6.63;87.42;100943.31;106000;1298;25783;-64
2024/03/14 07:07:17;;;;;;;82.60;51.20;;;;;;;6.87;87.58;100942.73;103306;1293;22640;-61
2024/03/14 07:09:43;;;;;;;80.30;52.20;;;;;;;7.22;87.62;100940.44;103273;1311;22562;-65
2024/03/14 07:12:11;;;;;;;76.20;51.50;;;;;;;7.55;87.70;100940.16;103369;1310;24097;-61
2024/03/14 07:14:37;;;;;;;76.10;50.20;;;;;;;7.95;87.85;100939.81;103181;1300;22563;-62
2024/03/14 07:17:03;;;;;;;74.40;48.20;;;;;;;8.35;87.89;100947.70;103118;1311;370343;-62
2024/03/14 07:19:29;;;;;;;134.70;52.90;;;;;;;8.55;87.23;100951.09;103259;1314;22597;-62
2024/03/14 07:21:54;;;;;;;72.70;49.50;;;;;;;8.68;86.43;100952.78;103370;1303;22674;-62
2024/03/14 07:24:25;;;;;;;92.50;48.60;;;;;;;8.99;87.04;100948.52;103329;1297;22624;-62
2024/03/14 07:26:51;;;;;;;105.90;52.60;;;;;;;9.34;86.90;100951.61;103185;1315;22584;-62
2024/03/14 07:29:18;;;;;;;331.00;59.20;;;;;;;9.75;86.38;100950.98;103261;1297;23109;-62
2024/03/14 07:31:45;;;;;;;;;;;;;;;10.16;85.68;100951.34;103329;1310;22579;-62
2024/03/14 07:34:11;;;;;;;;;;;;;;;10.74;85.24;100948.32;103368;1296;22551;-62
2024/03/14 07:36:57;;;;;;;;;;;;;;;;;;;;;
2024/03/14 07:39:25;;;;;;;346.50;63.60;;;;;;;11.30;81.05;100945.54;102995;1316;22578;-63
2024/03/14 07:41:52;;;;;;;464.20;65.10;;;;;;;11.66;82.28;100952.09;103307;1310;25519;-63
2024/03/14 07:44:18;;;;;;;;;;;;;;;12.09;81.67;100955.38;103244;1301;22552;-62
2024/03/14 07:46:44;;;;;;;887.30;78.50;;;;;;;12.70;81.95;100951.81;103286;1301;22563;-63
2024/03/14 07:49:09;;;;;;;558.40;71.50;;;;;;;13.27;79.01;100953.08;103247;1310;22666;-63
2024/03/14 07:51:36;;;;;;;894.60;82.40;;;;;;;13.73;80.43;100955.14;103236;1310;25116;-63
2024/03/14 07:54:01;;;;;;;665.50;73.80;;;;;;;14.22;77.74;100952.17;103352;1293;22186;-62
2024/03/14 07:56:29;;;;;;;1161.30;89.60;;;;;;;14.42;78.53;100952.70;103103;1293;25152;-60
2024/03/14 07:58:55;;;;;;;840.70;84.00;;;;;;;15.09;80.60;100951.14;103330;1316;23033;-59
2024/03/14 08:01:22;;;;;;;847.30;83.10;;;;;;;15.66;77.91;100953.25;103383;1307;25269;-60
2024/03/14 08:03:47;;;;;;;863.10;84.20;;;;;;;16.10;76.22;100959.45;103358;1310;22568;-60
2024/03/14 08:06:18;;;;;;;827.00;82.20;;;;;;;16.21;74.91;100959.05;103264;1310;22670;-60
2024/03/14 08:08:45;;;;;;;534.30;68.50;;;;;;;16.73;77.72;100956.23;103352;1308;26564;-60
2024/03/14 08:11:16;;;;;;;832.00;82.30;;;;;;;17.02;73.96;100956.56;103278;1316;23286;-59
2024/03/14 08:13:42;;;;;;;789.10;79.60;;;;;;;17.37;74.39;100959.92;103155;1310;22564;-60
2024/03/14 08:21:32;;;;;;;885.30;81.60;;;;;;;17.90;72.24;100953.11;105072;1313;83322;-61
2024/03/14 08:24:09;;;;;;;890.40;87.40;;;;;;;17.97;64.35;100950.73;104532;1316;22605;-60
2024/03/14 08:26:37;;;;;;;915.00;94.00;;;;;;;18.34;74.74;100947.23;104604;1311;22578;-61
2024/03/14 08:29:02;;;;;;;1029.90;107.10;;;;;;;19.19;74.99;100940.80;105430;1318;22604;-59
2024/03/14 08:31:28;;;;;;;876.10;87.30;;;;;;;19.63;71.22;100946.23;105501;1300;22521;-59
2024/03/14 08:33:55;;;;;;;530.60;72.50;;;;;;;19.75;72.45;100945.81;105396;1319;22681;-58
2024/03/14 08:36:22;;;;;;;975.90;86.10;;;;;;;20.02;68.76;100944.26;104902;1309;22572;-59
2024/03/14 08:38:48;;;;;;;636.00;73.10;;;;;;;20.36;72.25;100941.86;104821;1312;23126;-59
2024/03/14 08:41:14;;;;;;;793.90;74.70;;;;;;;20.66;65.40;100941.55;104768;1313;22511;-58
2024/03/14 08:43:40;;;;;;;824.60;86.20;;;;;;;20.69;63.81;100942.05;104800;1313;22551;-59
2024/03/14 08:46:07;;;;;;;816.20;74.50;;;;;;;20.03;59.28;100946.29;104690;1297;22918;-59
2024/03/14 08:48:33;;;;;;;;;;;;;;;19.83;60.26;100946.98;105781;1314;23947;-60
2024/03/14 08:51:00;;;;;;;643.60;67.90;;;;;;;19.61;57.92;100948.61;106935;1316;22272;-59
2024/03/14 08:53:36;;;;;;;766.50;67.90;;;;;;;19.75;56.70;100948.42;106749;1314;22883;-60
2024/03/14 08:56:07;;;;;;;697.40;66.70;;;;;;;20.02;58.39;100953.36;106881;1300;22286;-59
2024/03/14 08:58:33;;;;;;;579.50;62.20;;;;;;;20.67;58.85;100950.54;106372;1313;23885;-59
2024/03/14 09:00:59;;;;;;;1072.70;88.60;;;;;;;20.72;52.43;100952.20;105032;1313;22544;-59
2024/03/14 09:03:27;;;;;;;1042.50;85.10;;;;;;;19.96;52.29;100951.60;105295;1313;23324;-58
2024/03/14 09:05:53;;;;;;;479.40;62.00;;;;;;;20.07;54.84;100949.83;105069;1300;22595;-59
2024/03/14 09:08:21;;;;;;;826.80;83.10;;;;;;;20.25;52.58;100952.55;105141;1312;23198;-59
2024/03/14 09:10:47;;;;;;;897.10;74.00;;;;;;;20.55;52.01;100948.40;105088;1304;22563;-58
2024/03/14 09:13:14;;;;;;;622.80;64.20;;;;;;;21.09;54.85;100949.00;105024;1316;24446;-59
2024/03/14 09:15:41;;;;;;;482.30;55.50;;;;;;;21.30;50.94;100946.63;105559;1298;22523;-60
2024/03/14 09:18:08;;;;;;;574.60;55.80;;;;;;;21.28;51.15;100945.70;105191;1318;22595;-59
2024/03/14 09:20:33;;;;;;;629.20;61.10;;;;;;;21.37;49.87;100945.20;105735;1314;23428;-60
2024/03/14 09:22:59;;;;;;;549.10;83.70;;;;;;;21.19;46.58;100947.58;105287;1318;22625;-59
2024/03/14 09:25:28;;;;;;;886.00;84.60;;;;;;;21.10;48.91;100950.35;105344;1299;22524;-59
2024/03/14 09:27:54;;;;;;;770.00;70.10;;;;;;;21.43;48.33;100942.20;105881;1300;22565;-60
2024/03/14 09:30:24;;;;;;;767.30;69.50;;;;;;;21.59;45.95;100944.10;105424;1313;24091;-59
2024/03/14 09:32:50;;;;;;;861.80;82.90;;;;;;;21.65;45.76;100943.61;105469;1313;24243;-58
2024/03/14 09:35:25;;;;;;;726.10;75.60;;;;;;;21.94;47.60;100942.79;105431;1312;22606;-58
2024/03/14 09:37:56;;;;;;;810.10;82.40;;;;;;;21.84;48.46;100940.75;106531;1301;22611;-58
2024/03/14 09:40:23;;;;;;;721.80;69.90;;;;;;;22.44;47.86;100939.11;105640;1319;22531;-60
2024/03/14 09:42:56;;;;;;;365.90;50.90;;;;;;;21.80;46.70;100942.38;105483;1313;22533;-59
2024/03/14 09:45:24;;;;;;;505.10;58.50;;;;;;;21.32;45.55;100943.21;105374;1318;23062;-58
2024/03/14 09:47:50;;;;;;;512.40;55.50;;;;;;;21.15;44.55;100940.76;105223;1302;22561;-58
2024/03/14 09:50:20;;;;;;;670.50;75.50;;;;;;;20.59;44.88;100941.06;106435;1318;22766;-59
2024/03/14 09:52:48;;;;;;;647.90;54.90;;;;;;;19.85;43.67;100938.64;106012;1316;22576;-60
2024/03/14 09:55:16;;;;;;;293.10;43.80;;;;;;;19.25;45.00;100939.30;102206;1317;5004464;-59
2024/03/14 09:57:51;;;;;;;421.40;61.20;;;;;;;19.25;45.01;100937.70;106059;1318;22645;-59
2024/03/14 10:00:19;;;;;;;382.80;46.90;;;;;;;19.37;43.56;100937.48;106086;1318;22591;-59
2024/03/14 10:02:49;;;;;;;115.50;37.20;;;;;;;18.76;44.45;100939.96;106145;1314;22277;-59
2024/03/14 10:05:21;;;;;;;383.80;45.10;;;;;;;18.55;44.82;100935.84;106100;1318;22730;-60
2024/03/14 10:07:48;;;;;;;302.40;42.80;;;;;;;19.62;45.73;100931.04;106260;1301;22383;-60
2024/03/14 10:10:16;;;;;;;;;;;;;;;20.00;44.36;100932.45;106408;1318;22806;-60
2024/03/14 10:12:52;;;;;;;342.70;41.50;;;;;;;19.86;42.91;100928.08;106347;1313;22585;-60
2024/03/14 10:15:22;;;;;;;255.50;40.20;;;;;;;20.07;42.00;100928.05;106030;1297;23871;-58
2024/03/14 10:17:48;;;;;;;193.80;31.50;;;;;;;19.15;41.59;100929.74;106022;1300;22605;-59
2024/03/14 10:20:14;;;;;;;465.00;46.20;;;;;;;19.36;42.63;100930.02;104637;1314;22582;-58
2024/03/14 10:22:40;;;;;;;557.00;46.90;;;;;;;20.12;41.39;100927.69;103903;1313;22611;-58
2024/03/14 10:25:12;;;;;;;564.80;48.20;;;;;;;20.31;41.39;100925.27;104053;1315;22587;-60
2024/03/14 10:27:41;;;;;;;555.60;44.20;;;;;;;21.04;41.13;100922.60;103941;1305;24251;-56
2024/03/14 10:30:09;;;;;;;348.30;85.30;;;;;;;21.86;40.19;100929.73;103643;1319;22922;-56
2024/03/14 10:32:38;;;;;;;642.70;50.60;;;;;;;21.45;36.90;100921.77;105299;1319;22552;-60
2024/03/14 10:35:10;;;;;;;417.60;63.50;;;;;;;21.73;38.24;100917.14;105313;1316;22650;-58
2024/03/14 10:37:44;;;;;;;316.60;39.00;;;;;;;21.99;37.38;100917.40;105703;1301;24039;-58
2024/03/14 10:40:28;;;;;;;719.70;71.60;;;;;;;21.95;37.78;100911.84;105972;1316;22885;-58
2024/03/14 10:42:55;;;;;;;764.60;64.70;;;;;;;21.98;36.72;100911.30;105818;1314;22625;-60
2024/03/14 10:45:21;;;;;;;;;;;;;;;22.71;37.64;100906.75;105756;1319;22484;-58
2024/03/14 10:47:50;;;;;;;596.30;58.20;;;;;;;23.06;36.44;100901.14;105357;1300;22476;-58
2024/03/14 10:50:19;;;;;;;420.30;49.10;;;;;;;23.33;36.67;100905.80;105875;1316;22706;-57
2024/03/14 10:52:50;;;;;;;690.00;59.40;;;;;;;23.70;36.00;100899.29;101899;1319;5003337;-58
2024/03/14 10:55:21;;;;;;;595.70;58.60;;;;;;;22.63;36.64;100899.13;106480;1311;22596;-59
2024/03/14 10:57:49;;;;;;;608.20;60.70;;;;;;;22.04;36.87;100900.58;105426;1298;22624;-59
2024/03/14 11:00:20;;;;;;;475.70;45.20;;;;;;;22.50;36.37;100893.41;105305;1317;22609;-57
2024/03/14 11:02:49;;;;;;;261.20;40.10;;;;;;;21.61;37.25;100903.29;105138;1313;22588;-58
2024/03/14 11:05:22;;;;;;;254.00;47.70;;;;;;;21.32;37.88;100896.87;105877;1311;22664;-58
2024/03/14 11:07:53;;;;;;;262.50;34.60;;;;;;;21.00;38.27;100896.16;105442;1314;22527;-58
2024/03/14 11:10:31;;;;;;;341.70;43.00;;;;;;;22.04;37.99;100897.46;105213;1318;22611;-58
2024/03/14 11:13:19;;;;;;;361.40;43.30;;;;;;;22.26;36.02;100894.73;105129;1313;22681;-58
2024/03/14 11:15:46;;;;;;;429.80;46.50;;;;;;;22.40;36.61;100888.73;105379;1318;22601;-58